• Join FlightAware (Why Join?)
  • Login
  • US Flag 
02:42AM EDT


 

Airport Tracker/Info


-or-


 

Live Flight TrackerFlight Track Log ✈ N1016C ✈ 27-Apr-2013 ✈ 4M7 - I19

Flight Track Log - Related Links

Times and Time Zones

All times are in EDT time to prevent confusion due to time zone crossing. See the N1016C flight status page for this flight to view local times or setup timezone preferences in your user account.

Time Position Orientation Groundspeed Altitude Reporting Facility
EDT Latitude Longitude Course Direction KTS MPH feet Rate Location/Type
03:19PM 36.8994 -86.7197 37° Northeast 170 196 1,900  Level Memphis Center
03:20PM 36.9339 -86.6869 37° Northeast 176 203 2,000 240 Climbing Memphis Center
03:21PM 36.9722 -86.6514 37° Northeast 176 203 2,400 420 Climbing Memphis Center
03:22PM 37.0089 -86.6186 36° Northeast 162 186 2,900 480 Climbing Memphis Center
03:23PM 37.0433 -86.5858 37° Northeast 156 180 3,400 420 Climbing Memphis Center
03:24PM 37.0797 -86.5531 36° Northeast 156 180 3,800 420 Climbing Memphis Center
03:26PM 37.1594 -86.4761 38° Northeast 162 186 4,900 480 Climbing Indianapolis Center
03:27PM 37.1969 -86.4408 37° Northeast 165 190 5,400 420 Climbing Indianapolis Center
03:28PM 37.2339 -86.4067 36° Northeast 165 190 5,800 420 Climbing Indianapolis Center
03:29PM 37.2703 -86.3697 39° Northeast 167 192 6,300 480 Climbing Indianapolis Center
03:30PM 37.3072 -86.3364 36° Northeast 163 188 6,800 420 Climbing Indianapolis Center
03:31PM 37.3433 -86.3022 37° Northeast 162 186 7,200 480 Climbing Indianapolis Center
03:32PM 37.3856 -86.2633 36° Northeast 159 183 7,800 480 Climbing Indianapolis Center
03:33PM 37.4217 -86.2289 37° Northeast 162 186 8,200 360 Climbing Indianapolis Center
03:34PM 37.4589 -86.1925 38° Northeast 167 192 8,600 300 Climbing Indianapolis Center
03:35PM 37.4969 -86.1567 37° Northeast 169 194 8,900 180 Climbing Indianapolis Center
03:36PM 37.5358 -86.1194 37° Northeast 174 200 9,000  Climbing Indianapolis Center
03:38PM 37.5739 -86.0844 36° Northeast 188 216 9,000  Level Indianapolis Center
03:39PM 37.6247 -86.0367 37° Northeast 190 219 9,000  Level Indianapolis Center
03:40PM 37.6658 -85.9961 38° Northeast 188 216 9,000  Level Indianapolis Center
03:41PM 37.7083 -85.9567 36° Northeast 188 216 9,000  Level Indianapolis Center
03:42PM 37.7497 -85.9161 38° Northeast 186 214 9,000  Level Indianapolis Center
03:43PM 37.7911 -85.8761 37° Northeast 188 216 9,000  Level Indianapolis Center
03:44PM 37.8308 -85.8378 37° Northeast 181 208 9,000  Level Indianapolis Center
03:45PM 37.8711 -85.7997 37° Northeast 180 207 9,000  Level Indianapolis Center
03:46PM 37.9128 -85.7594 37° Northeast 187 215 9,000  Level Indianapolis Center
03:47PM 37.9544 -85.7197 37° Northeast 188 216 9,000  Level Indianapolis Center
03:48PM 37.9958 -85.6786 38° Northeast 188 216 9,000  Level Indianapolis Center
03:49PM 38.0461 -85.6308 37° Northeast 189 217 9,000  Level Indianapolis Center
03:50PM 38.0878 -85.5906 37° Northeast 187 215 9,000  Level Indianapolis Center
03:51PM 38.1289 -85.5511 37° Northeast 185 213 9,000  Level Indianapolis Center
03:52PM 38.1708 -85.5117 36° Northeast 185 213 9,000  Level Indianapolis Center
03:53PM 38.2119 -85.4714 38° Northeast 186 214 9,000  Level Indianapolis Center
03:54PM 38.2525 -85.4303 39° Northeast 186 214 9,000  Level Indianapolis Center
03:55PM 38.2939 -85.3906 37° Northeast 185 213 9,000  Level Indianapolis Center
03:56PM 38.3350 -85.3503 38° Northeast 185 213 9,000  Level Indianapolis Center
03:57PM 38.3775 -85.3089 37° Northeast 191 220 9,000  Level Indianapolis Center
03:58PM 38.4181 -85.2689 38° Northeast 186 214 9,000  Level Indianapolis Center
03:59PM 38.4686 -85.2189 38° Northeast 189 217 9,000  Level Indianapolis Center
04:00PM 38.5075 -85.1806 38° Northeast 190 219 9,000  Level Indianapolis Center
04:01PM 38.5483 -85.1419 36° Northeast 184 212 9,000  Level Indianapolis Center
04:02PM 38.5958 -85.0942 38° Northeast 184 212 9,000  Level Indianapolis Center
04:03PM 38.6378 -85.0531 37° Northeast 188 216 9,000  Level Indianapolis Center
04:04PM 38.6764 -85.0153 37° Northeast 183 211 9,000  Level Indianapolis Center
04:05PM 38.7169 -84.9744 38° Northeast 185 213 9,000  Level Indianapolis Center
04:06PM 38.7575 -84.9353 37° Northeast 181 208 9,000  Level Indianapolis Center
04:07PM 38.7969 -84.8953 38° Northeast 180 207 9,000  Level Indianapolis Center
04:08PM 38.8361 -84.8556 38° Northeast 179 206 9,000  Level Indianapolis Center
04:09PM 38.8764 -84.8167 37° Northeast 179 206 9,000  Level Indianapolis Center
04:10PM 38.9167 -84.7833 33° Northeast 179 206 9,000  Level Cincinnati TRACON
04:11PM 38.9500 -84.7333 49° Northeast 177 204 9,000 -60 Level Cincinnati TRACON
04:12PM 38.9833 -84.7000 38° Northeast 182 209 8,900 -60 Descending Cincinnati TRACON
04:13PM 39.0333 -84.6667 27° Northeast 180 207 8,900  Level Cincinnati TRACON
04:14PM 39.0667 -84.6167 49° Northeast 193 222 8,900  Level Cincinnati TRACON
04:15PM 39.1167 -84.5833 27° Northeast 182 209 9,000  Climbing Cincinnati TRACON
04:16PM 39.1500 -84.5333 49° Northeast 184 212 9,000  Level Cincinnati TRACON
04:16PM 39.1658 -84.5256 21° North 181 208 9,000 -180 Level Indianapolis Center
04:17PM 39.2083 -84.4836 37° Northeast 188 216 8,800 -420 Descending Indianapolis Center
04:18PM 39.2311 -84.4636 34° Northeast 191 220 8,400 -720 Descending Indianapolis Center
04:19PM 39.2550 -84.4500 24° Northeast 190 219 8,100 -780 Descending Indianapolis Center
04:19PM 39.2747 -84.4425 16° North 202 232 7,800 -720 Descending Indianapolis Center
04:20PM 39.3081 -84.4253 22° Northeast 197 227 7,400 -720 Descending Indianapolis Center
04:20PM 39.3253 -84.4142 27° Northeast 195 224 7,100 -840 Descending Indianapolis Center
04:21PM 39.3581 -84.3981 21° North 196 226 6,600 -720 Descending Indianapolis Center
04:22PM 39.4103 -84.3750 19° North 196 226 5,900 -780 Descending Indianapolis Center
04:22PM 39.4256 -84.3656 26° Northeast 192 221 5,600 -840 Descending Indianapolis Center
04:23PM 39.4583 -84.3494 21° North 191 220 5,100 -600 Descending Indianapolis Center
04:23PM 39.4756 -84.3425 17° North 187 215 5,000 -120 Descending Indianapolis Center
04:24PM 39.5061 -84.3275 21° North 185 213 5,000 -120 Level Indianapolis Center
04:24PM 39.5097 -84.3119 73° East 158 182 4,900 -120 Descending Indianapolis Center
04:25PM 39.5275 -84.2825 52° Northeast 158 182 4,900  Level Indianapolis Center
04:25PM 39.5364 -84.2667 54° Northeast 142 163 4,900 -120 Level Indianapolis Center
04:26PM 39.5514 -84.2392 55° Northeast 148 170 4,800 -420 Descending Indianapolis Center
04:26PM 39.5606 -84.2239 52° Northeast 144 166 4,500 -780 Descending Indianapolis Center
04:27PM 39.5778 -84.1933 54° Northeast 151 174 4,000 -900 Descending Indianapolis Center
04:27PM 39.5878 -84.1733 57° Northeast 174 200 3,600 -840 Descending Indianapolis Center
04:28PM 39.6064 -84.1422 52° Northeast 163 188 3,200 -600 Descending Indianapolis Center
04:28PM 39.6167 -84.1228 56° Northeast 174 200 3,000 -540 Descending Indianapolis Center
04:29PM 39.6364 -84.0842 56° Northeast 169 194 2,700 -420 Descending Indianapolis Center